Salem, WV (26426)

20:57:EDT den 23. juli 2016 (GMT -0400)
Marshville | | Change Station

H.o.h 1122 ft 39.34 °N, 80.52 °W | Updated 7 minutes ago

Clear
Klart
79.3 °F
Feels Like 83 °F
N
0.0
Vind Variabel Vind from SV

I dag
High -- | Low -- °F
--% Chance of Precip.
I går
High -- | Low -- °F
Precip. -- tommer
Lufttrykk 29.94 tommer
Sikt 10.0 eng. mil
Skyet Klart
Varmeindeks 83 °F
Duggpunkt 75 °F
Fuktighet 87%
Regn 0.00 tommer
Snødybde Not available.
6:14 AM 8:42 PM
Trekvart minkende, 81% visible
METAR KCKB 240053Z 20003KT 10SM CLR 27/21 A2998 RMK AO2 SLP136 T02720211
Lufttrykk 29.94 tommer
Sikt 10.0 eng. mil
Skyet Klart
Varmeindeks 83 °F
Duggpunkt 75 °F
Fuktighet 87%
Regn 0.00 tommer
Snødybde Not available.
6:14 AM 8:42 PM
Trekvart minkende, 81% visible
METAR KCKB 240053Z 20003KT 10SM CLR 27/21 A2998 RMK AO2 SLP136 T02720211

10-Day Weather Forecast

Almanac

Astronomi

Jul. 23, 2016 Oppgang Nedgang
Virkelig tid
Tussmørke
Nautisk skumring
Astronomisk skumring
Månen
Lengde av synlig lys
Dagens lengde
Tomorrow will be .
, % of the Moon is Illuminated

Dagens maks og min

State Highs State Lows

Community

WunderPhotos

Upload Photos

1,926,985 photos uploaded!

WunderBlog® & News

Nearby

Luftkvalitet

  Luftkvalitet AQ Indeks Forurensing
Not available.

Snødybde

Stasjon Depth Høyde over havet

Earthquake Activity

By Distance Mag. Time & Date
Minimum magnitude displayed is 2.5.

Coastal Water Temperatures

Sted Temperatur

Stations

Nearby Weather Stations

Stasjonens lokasjon Temp. Nedkjølingseffekt Duggpunkt Fuktighet Vind Precip. H.o.h Oppdatert Type
                   

Watches & Warnings

There are currently no watches in effect.